createdAt,value
2018-04-15T00:02:28.100Z,72.73
2018-04-15T00:04:57.142Z,73.39
2018-04-15T00:07:25.412Z,73.46
2018-04-15T00:09:53.674Z,73.78
2018-04-15T00:12:21.932Z,74.39
2018-04-15T00:14:50.225Z,74.77
2018-04-15T00:17:18.483Z,74.59
2018-04-15T00:19:46.749Z,74.66
2018-04-15T00:22:15.796Z,74.91
2018-04-15T00:24:44.057Z,75.17
2018-04-15T00:27:13.099Z,75.83
2018-04-15T00:29:41.387Z,76.03
2018-04-15T00:32:09.640Z,76.17
2018-04-15T00:34:38.682Z,76.29
2018-04-15T00:37:06.990Z,76.81
2018-04-15T00:39:35.259Z,76.98
2018-04-15T00:42:03.541Z,76.74
2018-04-15T00:44:31.808Z,77.58
2018-04-15T00:47:00.836Z,77.37
2018-04-15T00:49:29.128Z,78.10
2018-04-15T00:51:57.400Z,77.37
2018-04-15T00:54:26.427Z,77.94
2018-04-15T00:56:54.708Z,78.64
2018-04-15T00:59:22.987Z,78.71
2018-04-15T01:01:52.009Z,79.20
2018-04-15T01:04:20.279Z,79.37
2018-04-15T01:06:49.319Z,79.65
2018-04-15T01:09:17.588Z,79.63
2018-04-15T01:11:45.849Z,79.95
2018-04-15T01:14:14.125Z,80.26
2018-04-15T01:16:42.397Z,80.02
2018-04-15T01:19:10.664Z,80.44
2018-04-15T01:21:38.936Z,79.95
2018-04-15T01:24:07.206Z,80.27
2018-04-15T01:26:36.232Z,80.05
2018-04-15T01:29:04.507Z,80.30
2018-04-15T01:31:33.555Z,80.79
2018-04-15T01:34:01.799Z,80.56
2018-04-15T01:36:30.848Z,80.38
2018-04-15T01:38:59.132Z,81.10
2018-04-15T01:41:27.388Z,80.89
2018-04-15T01:43:56.427Z,81.05
2018-04-15T01:46:24.692Z,80.74
2018-04-15T01:48:53.712Z,80.38
2018-04-15T01:51:21.983Z,80.25
2018-04-15T01:53:51.011Z,80.84
2018-04-15T01:56:19.307Z,80.27
2018-04-15T01:58:47.569Z,80.08
2018-04-15T02:01:16.609Z,80.27
2018-04-15T02:03:44.869Z,80.20
2018-04-15T02:06:13.935Z,80.41
2018-04-15T02:08:42.256Z,80.29
2018-04-15T02:11:10.523Z,80.82
2018-04-15T02:13:38.791Z,80.38
2018-04-15T02:16:07.070Z,80.70
2018-04-15T02:18:35.331Z,80.82
2018-04-15T02:21:03.603Z,80.91
2018-04-15T02:23:32.639Z,80.92
2018-04-15T02:26:00.922Z,80.83
2018-04-15T02:28:29.956Z,81.10
2018-04-15T02:30:58.234Z,81.50
2018-04-15T02:33:27.256Z,81.78
2018-04-15T02:35:55.539Z,81.95
2018-04-15T02:38:23.829Z,82.23
2018-04-15T02:40:52.102Z,82.29
2018-04-15T02:43:21.132Z,82.03
2018-04-15T02:45:49.388Z,82.29
2018-04-15T02:48:18.443Z,81.78
2018-04-15T02:50:46.838Z,81.70
2018-04-15T02:53:15.092Z,81.56
2018-04-15T02:55:44.131Z,81.52
2018-04-15T02:58:12.408Z,82.11
2018-04-15T03:00:40.672Z,82.00
2018-04-15T03:03:09.700Z,82.73
2018-04-15T03:05:37.988Z,82.63
2018-04-15T03:08:06.262Z,83.18
2018-04-15T03:10:35.281Z,83.04
2018-04-15T03:13:03.555Z,82.96
2018-04-15T03:15:32.591Z,83.27
2018-04-15T03:18:00.852Z,83.37
2018-04-15T03:20:29.902Z,83.63
2018-04-15T03:22:58.165Z,83.06
2018-04-15T03:25:26.432Z,83.17
2018-04-15T03:27:55.485Z,83.73
2018-04-15T03:30:23.782Z,83.67
2018-04-15T03:32:52.048Z,83.10
2018-04-15T03:35:20.350Z,83.79
2018-04-15T03:37:48.611Z,83.91
2018-04-15T03:40:17.637Z,84.03
2018-04-15T03:42:45.915Z,83.63
2018-04-15T03:45:14.940Z,83.66
2018-04-15T03:47:43.200Z,84.59
2018-04-15T03:50:12.265Z,84.63
2018-04-15T03:52:40.576Z,84.42
2018-04-15T03:55:08.835Z,84.65
2018-04-15T03:57:37.113Z,84.08
2018-04-15T04:00:05.368Z,84.06
2018-04-15T04:02:34.402Z,84.44
2018-04-15T04:05:02.693Z,84.30
2018-04-15T04:07:30.970Z,84.46
2018-04-15T04:09:59.991Z,84.73
2018-04-15T04:12:28.272Z,84.49
2018-04-15T04:14:56.540Z,84.45
2018-04-15T04:17:43.113Z,84.35
2018-04-15T04:20:28.945Z,84.02
2018-04-15T04:23:14.802Z,84.27
2018-04-15T04:26:00.568Z,84.13
2018-04-15T04:28:28.848Z,83.83
2018-04-15T04:30:57.160Z,84.19
2018-04-15T04:33:26.284Z,84.05
2018-04-15T04:35:54.559Z,83.99
2018-04-15T04:38:22.838Z,83.85
2018-04-15T04:40:51.891Z,84.50
2018-04-15T04:43:20.155Z,83.91
2018-04-15T04:45:48.431Z,83.81
2018-04-15T04:48:17.495Z,83.52
2018-04-15T04:50:45.772Z,84.10
2018-04-15T04:53:14.055Z,83.72
2018-04-15T04:55:42.323Z,83.35
2018-04-15T04:58:11.396Z,83.87
2018-04-15T05:00:39.659Z,84.10
2018-04-15T05:03:07.916Z,83.64
2018-04-15T05:05:36.195Z,83.21
2018-04-15T05:08:05.207Z,83.57
2018-04-15T05:10:33.531Z,83.45
2018-04-15T05:13:01.805Z,83.55
2018-04-15T05:15:30.060Z,83.49
2018-04-15T05:17:58.328Z,83.72
2018-04-15T05:20:26.619Z,84.10
2018-04-15T05:22:54.876Z,84.22
2018-04-15T05:25:23.131Z,84.55
2018-04-15T05:27:52.179Z,84.21
2018-04-15T05:30:20.449Z,84.51
2018-04-15T05:32:48.712Z,84.26
2018-04-15T05:35:17.774Z,84.21
2018-04-15T05:37:46.039Z,84.27
2018-04-15T05:40:14.308Z,84.32
2018-04-15T05:42:43.348Z,84.30
2018-04-15T05:45:11.648Z,84.20
2018-04-15T05:47:39.936Z,84.00
2018-04-15T05:50:08.187Z,84.42
2018-04-15T05:52:37.224Z,84.27
2018-04-15T05:55:05.479Z,84.16
2018-04-15T05:57:34.527Z,83.63
2018-04-15T06:00:02.795Z,84.12
2018-04-15T06:02:31.132Z,84.10
2018-04-15T06:04:59.422Z,84.32
2018-04-15T06:07:27.692Z,84.44
2018-04-15T06:09:55.956Z,84.51
2018-04-15T06:12:24.227Z,84.09
2018-04-15T06:14:53.313Z,83.91
2018-04-15T06:17:21.532Z,84.12
2018-04-15T06:19:50.568Z,84.23
2018-04-15T06:22:18.827Z,84.61
2018-04-15T06:24:47.848Z,84.03
2018-04-15T06:27:16.155Z,83.88
2018-04-15T06:29:44.427Z,84.32
2018-04-15T06:32:13.447Z,83.82
2018-04-15T06:34:41.835Z,83.47
2018-04-15T06:37:10.126Z,83.67
2018-04-15T06:39:38.384Z,83.27
2018-04-15T06:42:07.442Z,83.02
2018-04-15T06:44:35.721Z,82.23
2018-04-15T06:47:03.981Z,82.70
2018-04-15T06:49:33.035Z,81.98
2018-04-15T06:52:01.506Z,81.58
2018-04-15T06:54:29.773Z,82.11
2018-04-15T06:56:58.816Z,81.83
2018-04-15T06:59:27.088Z,81.17
2018-04-15T07:01:55.347Z,81.43
2018-04-15T07:04:23.618Z,80.02
2018-04-15T07:06:51.889Z,80.89
2018-04-15T07:09:20.142Z,81.61
2018-04-15T07:11:48.415Z,80.68
2018-04-15T07:14:16.676Z,79.49
2018-04-15T07:16:44.955Z,80.29
2018-04-15T07:19:13.227Z,79.35
2018-04-15T07:21:41.508Z,77.19
2018-04-15T07:24:10.846Z,77.35
2018-04-15T07:26:41.044Z,74.97
2018-04-15T07:29:11.082Z,73.38
2018-04-15T07:31:40.114Z,72.46
2018-04-15T07:34:08.368Z,70.84
2018-04-15T07:36:37.397Z,70.14
2018-04-15T07:39:06.447Z,70.52
2018-04-15T07:41:34.746Z,72.06
2018-04-15T07:44:03.025Z,71.52
2018-04-15T07:46:31.316Z,69.75
2018-04-15T07:48:59.580Z,68.60
2018-04-15T07:51:27.831Z,67.63
2018-04-15T07:53:56.902Z,67.45
2018-04-15T07:56:25.165Z,65.49
2018-04-15T07:58:53.415Z,65.50
2018-04-15T08:01:22.455Z,65.02
2018-04-15T08:03:50.721Z,65.25
2018-04-15T08:06:19.752Z,64.18
2018-04-15T08:08:48.011Z,62.65
2018-04-15T08:11:17.041Z,59.22
2018-04-15T08:13:45.310Z,60.05
2018-04-15T08:16:14.412Z,60.05
2018-04-15T08:18:43.443Z,59.79
2018-04-15T08:21:11.741Z,59.09
2018-04-15T08:23:40.027Z,59.07
2018-04-15T08:26:08.327Z,57.95
2018-04-15T08:28:36.547Z,61.26
2018-04-15T08:31:04.826Z,59.22
2018-04-15T08:33:33.072Z,59.98
2018-04-15T08:36:02.249Z,60.78
2018-04-15T08:38:30.537Z,59.98
2018-04-15T08:40:58.809Z,57.88
2018-04-15T08:43:27.085Z,58.16
2018-04-15T08:45:55.454Z,58.30
2018-04-15T08:48:24.456Z,56.21
2018-04-15T08:50:52.756Z,53.01
2018-04-15T08:53:21.025Z,54.10
2018-04-15T08:55:50.045Z,57.33
2018-04-15T08:58:18.295Z,57.33
2018-04-15T09:00:46.560Z,57.50
2018-04-15T09:03:14.813Z,55.27
2018-04-15T09:05:43.111Z,55.68
2018-04-15T09:08:11.401Z,57.34
2018-04-15T09:10:39.652Z,54.68
2018-04-15T09:13:08.695Z,54.78
2018-04-15T09:15:36.963Z,52.75
2018-04-15T09:18:05.990Z,52.27
2018-04-15T09:20:34.244Z,50.58
2018-04-15T09:23:02.531Z,52.04
2018-04-15T09:25:30.790Z,51.96
2018-04-15T09:27:59.037Z,50.91
2018-04-15T09:30:28.082Z,49.47
2018-04-15T09:32:56.357Z,47.18
2018-04-15T09:35:24.607Z,48.49
2018-04-15T09:37:53.654Z,46.89
2018-04-15T09:40:21.928Z,46.67
2018-04-15T09:42:50.186Z,46.53
2018-04-15T09:45:18.451Z,47.64
2018-04-15T09:47:46.704Z,47.54
2018-04-15T09:50:14.976Z,47.80
2018-04-15T09:52:43.259Z,45.33
2018-04-15T09:55:12.317Z,47.53
2018-04-15T09:57:40.572Z,47.30
2018-04-15T10:00:08.847Z,45.23
2018-04-15T10:02:37.873Z,46.47
2018-04-15T10:05:06.151Z,45.88
2018-04-15T10:07:35.171Z,47.13
2018-04-15T10:10:03.420Z,46.38
2018-04-15T10:12:31.676Z,44.12
2018-04-15T10:14:59.943Z,43.51
2018-04-15T10:17:28.195Z,42.21
2018-04-15T10:19:56.470Z,42.28
2018-04-15T10:22:24.782Z,44.36
2018-04-15T10:24:53.023Z,45.19
2018-04-15T10:27:21.294Z,45.24
2018-04-15T10:29:49.555Z,45.09
2018-04-15T10:32:18.573Z,44.47
2018-04-15T10:34:47.590Z,42.81
2018-04-15T10:37:15.862Z,43.96
2018-04-15T10:39:44.909Z,44.03
2018-04-15T10:42:13.189Z,42.49
2018-04-15T10:44:41.463Z,41.67
2018-04-15T10:47:10.507Z,44.06
2018-04-15T10:49:38.761Z,45.00
2018-04-15T10:52:07.825Z,44.83
2018-04-15T10:54:36.131Z,44.86
2018-04-15T10:57:04.359Z,44.08
2018-04-15T10:59:32.639Z,41.52
2018-04-15T11:02:01.672Z,42.69
2018-04-15T11:04:29.920Z,43.57
2018-04-15T11:06:58.195Z,43.89
2018-04-15T11:09:26.474Z,42.83
2018-04-15T11:11:54.713Z,40.23
2018-04-15T11:14:22.972Z,39.43
2018-04-15T11:16:51.238Z,39.88
2018-04-15T11:19:19.501Z,38.54
2018-04-15T11:21:47.785Z,41.81
2018-04-15T11:24:16.061Z,42.88
2018-04-15T11:26:45.076Z,41.83
2018-04-15T11:29:13.452Z,40.49
2018-04-15T11:31:42.612Z,39.62
2018-04-15T11:34:10.876Z,39.16
2018-04-15T11:36:39.158Z,37.22
2018-04-15T11:39:08.155Z,39.32
2018-04-15T11:41:36.404Z,39.13
2018-04-15T11:44:04.683Z,38.75
2018-04-15T11:46:32.943Z,38.60
2018-04-15T11:49:01.200Z,37.25
2018-04-15T11:51:30.266Z,37.71
2018-04-15T11:53:58.523Z,37.69
2018-04-15T11:56:26.826Z,40.20
2018-04-15T11:58:55.107Z,39.40
2018-04-15T12:01:23.359Z,41.44
2018-04-15T12:03:51.631Z,40.96
2018-04-15T12:06:19.919Z,40.37
2018-04-15T12:08:48.180Z,41.30
2018-04-15T12:11:16.441Z,40.27
2018-04-15T12:13:45.476Z,40.08
2018-04-15T12:16:13.757Z,40.37
2018-04-15T12:18:42.058Z,40.91
2018-04-15T12:21:10.334Z,39.96
2018-04-15T12:23:38.601Z,38.44
2018-04-15T12:26:07.638Z,39.13
2018-04-15T12:28:35.902Z,38.35
2018-04-15T12:31:04.947Z,38.65
2018-04-15T12:33:33.186Z,39.01
2018-04-15T12:36:01.481Z,40.74
2018-04-15T12:38:30.525Z,39.54
2018-04-15T12:40:58.779Z,39.77
2018-04-15T12:43:27.071Z,39.94
2018-04-15T12:45:56.087Z,40.48
2018-04-15T12:48:25.130Z,39.27
2018-04-15T12:50:53.390Z,38.49
2018-04-15T12:53:22.409Z,38.19
2018-04-15T12:55:50.699Z,38.68
2018-04-15T12:58:18.956Z,38.59
2018-04-15T13:00:47.242Z,40.04
2018-04-15T13:03:15.500Z,38.94
2018-04-15T13:05:44.272Z,38.73
2018-04-15T13:08:12.632Z,38.39
2018-04-15T13:10:41.730Z,38.70
2018-04-15T13:13:10.782Z,38.08
2018-04-15T13:15:39.028Z,37.88
2018-04-15T13:18:07.298Z,37.61
2018-04-15T13:20:35.563Z,36.35
2018-04-15T13:23:03.859Z,37.75
2018-04-15T13:25:32.173Z,37.56
2018-04-15T13:28:00.442Z,38.68
2018-04-15T13:30:28.712Z,39.69
2018-04-15T13:32:56.977Z,40.04
2018-04-15T13:35:26.012Z,41.44
2018-04-15T13:37:54.280Z,41.08
2018-04-15T13:40:23.335Z,40.35
2018-04-15T13:42:51.591Z,41.01
2018-04-15T13:45:19.895Z,41.18
2018-04-15T13:47:48.183Z,41.61
2018-04-15T13:50:16.571Z,42.24
2018-04-15T13:52:44.861Z,41.71
2018-04-15T13:55:13.910Z,41.97
2018-04-15T13:57:42.384Z,41.96
2018-04-15T14:00:10.651Z,42.02
2018-04-15T14:02:38.990Z,42.02
2018-04-15T14:05:07.272Z,42.24
2018-04-15T14:07:35.542Z,42.33
2018-04-15T14:10:03.818Z,41.66
2018-04-15T14:12:32.101Z,41.19
2018-04-15T14:15:01.127Z,42.03
2018-04-15T14:17:29.386Z,42.05
2018-04-15T14:19:59.472Z,41.13
2018-04-15T14:22:27.744Z,41.34
2018-04-15T14:24:56.031Z,42.65
2018-04-15T14:27:24.308Z,42.18
2018-04-15T14:29:52.575Z,41.88
2018-04-15T14:32:21.628Z,41.62
2018-04-15T14:34:50.647Z,42.28
2018-04-15T14:37:18.916Z,41.60
2018-04-15T14:39:47.168Z,41.05
2018-04-15T14:42:16.195Z,41.86
2018-04-15T14:44:44.467Z,41.87
2018-04-15T14:47:13.502Z,41.84
2018-04-15T14:49:41.998Z,41.34
2018-04-15T14:52:10.243Z,41.21
2018-04-15T14:54:38.502Z,41.12
2018-04-15T14:57:06.791Z,40.79
2018-04-15T14:59:35.052Z,40.04
2018-04-15T15:02:03.303Z,40.26
2018-04-15T15:04:31.590Z,40.93
2018-04-15T15:06:59.881Z,41.29
2018-04-15T15:09:28.127Z,41.38
2018-04-15T15:11:56.424Z,41.39
2018-04-15T15:14:24.686Z,41.90
2018-04-15T15:16:52.963Z,41.50
2018-04-15T15:19:22.036Z,42.07
2018-04-15T15:21:50.247Z,42.29
2018-04-15T15:24:19.280Z,42.20
2018-04-15T15:26:47.557Z,42.67
2018-04-15T15:29:16.573Z,42.76
2018-04-15T15:31:44.835Z,43.19
2018-04-15T15:34:13.119Z,43.68
2018-04-15T15:36:41.431Z,42.88
2018-04-15T15:39:10.448Z,42.77
2018-04-15T15:41:38.716Z,42.89
2018-04-15T15:44:07.751Z,43.07
2018-04-15T15:46:36.018Z,43.38
2018-04-15T15:49:04.285Z,44.03
2018-04-15T15:51:33.323Z,44.26
2018-04-15T15:54:02.347Z,43.94
2018-04-15T15:56:30.637Z,44.36
2018-04-15T15:58:58.899Z,43.81
2018-04-15T16:01:27.188Z,44.01
2018-04-15T16:03:56.263Z,44.45
2018-04-15T16:06:24.555Z,44.76
2018-04-15T16:08:52.892Z,44.90
2018-04-15T16:11:21.144Z,44.84
2018-04-15T16:13:49.413Z,45.18
2018-04-15T16:16:17.723Z,45.35
2018-04-15T16:18:46.022Z,45.30
2018-04-15T16:21:14.304Z,45.21
2018-04-15T16:23:42.574Z,45.54
2018-04-15T16:26:10.866Z,45.85
2018-04-15T16:28:39.198Z,45.80
2018-04-15T16:31:07.456Z,45.67
2018-04-15T16:33:35.727Z,46.05
2018-04-15T16:36:03.987Z,46.38
2018-04-15T16:38:33.007Z,46.85
2018-04-15T16:41:01.275Z,47.55
2018-04-15T16:43:30.305Z,47.27
2018-04-15T16:45:58.573Z,47.33
2018-04-15T16:48:27.601Z,46.47
2018-04-15T16:50:55.867Z,46.83
2018-04-15T16:53:24.895Z,46.64
2018-04-15T16:55:53.931Z,46.46
2018-04-15T16:58:22.217Z,46.85
2018-04-15T17:00:50.456Z,46.69
2018-04-15T17:03:19.510Z,46.52
2018-04-15T17:05:47.807Z,46.61
2018-04-15T17:08:16.106Z,46.81
2018-04-15T17:10:44.371Z,47.07
2018-04-15T17:13:12.675Z,46.99
2018-04-15T17:15:40.948Z,47.04
2018-04-15T17:18:09.283Z,46.82
2018-04-15T17:20:37.542Z,47.28
2018-04-15T17:23:05.808Z,47.15
2018-04-15T17:25:34.124Z,47.92
2018-04-15T17:28:02.390Z,48.54
2018-04-15T17:30:31.413Z,49.14
2018-04-15T17:32:59.692Z,49.53
2018-04-15T17:35:27.975Z,49.64
2018-04-15T17:37:56.998Z,49.82
2018-04-15T17:40:25.264Z,51.00
2018-04-15T17:42:54.292Z,50.68
2018-04-15T17:45:27.062Z,50.49
2018-04-15T17:47:56.172Z,50.98
2018-04-15T17:50:24.584Z,51.00
2018-04-15T17:52:53.665Z,50.86
2018-04-15T17:55:21.876Z,51.47
2018-04-15T17:57:54.863Z,50.62
2018-04-15T18:00:23.112Z,51.01
2018-04-15T18:02:51.735Z,50.43
2018-04-15T18:05:20.003Z,50.75
2018-04-15T18:07:48.280Z,51.06
2018-04-15T18:10:16.588Z,51.11
2018-04-15T18:12:44.875Z,51.79
2018-04-15T18:15:13.154Z,51.77
2018-04-15T18:17:41.486Z,52.37
2018-04-15T18:20:10.544Z,52.58
2018-04-15T18:22:38.795Z,53.09
2018-04-15T18:25:07.835Z,53.35
2018-04-15T18:27:36.234Z,53.09
2018-04-15T18:30:06.639Z,54.20
2018-04-15T18:32:37.008Z,54.00
2018-04-15T18:35:05.284Z,54.50
2018-04-15T18:37:33.536Z,54.42
2018-04-15T18:40:03.697Z,54.16
2018-04-15T18:42:32.014Z,54.21
2018-04-15T18:45:00.269Z,54.52
2018-04-15T18:47:29.358Z,54.78
2018-04-15T18:49:57.666Z,56.27
2018-04-15T18:52:25.899Z,55.62
2018-04-15T18:54:54.167Z,55.65
2018-04-15T18:57:22.429Z,55.19
2018-04-15T18:59:50.690Z,55.25
2018-04-15T19:02:18.952Z,54.77
2018-04-15T19:04:47.213Z,55.15
2018-04-15T19:07:16.256Z,54.77
2018-04-15T19:09:44.535Z,54.64
2018-04-15T19:12:12.895Z,54.22
2018-04-15T19:14:41.144Z,54.69
2018-04-15T19:17:09.409Z,54.28
2018-04-15T19:19:37.703Z,55.25
2018-04-15T19:22:05.960Z,54.91
2018-04-15T19:24:34.314Z,54.88
2018-04-15T19:27:02.606Z,54.91
2018-04-15T19:29:30.865Z,55.71
2018-04-15T19:31:59.142Z,55.90
2018-04-15T19:34:27.396Z,55.84
2018-04-15T19:36:56.429Z,56.47
2018-04-15T19:39:24.687Z,56.72
2018-04-15T19:41:52.985Z,56.13
2018-04-15T19:44:21.226Z,56.06
2018-04-15T19:46:49.488Z,56.14
2018-04-15T19:49:17.798Z,57.30
2018-04-15T19:51:46.802Z,57.88
2018-04-15T19:54:15.136Z,58.76
2018-04-15T19:56:43.416Z,58.83
2018-04-15T19:59:11.676Z,58.25
2018-04-15T20:01:39.948Z,57.86
2018-04-15T20:04:08.244Z,56.88
2018-04-15T20:06:37.238Z,56.71
2018-04-15T20:09:06.434Z,56.84
2018-04-15T20:11:35.453Z,57.04
2018-04-15T20:14:03.732Z,56.81
2018-04-15T20:16:32.000Z,57.03
2018-04-15T20:19:00.267Z,56.71
2018-04-15T20:21:28.526Z,58.03
2018-04-15T20:23:56.864Z,59.48
2018-04-15T20:26:25.135Z,58.63
2018-04-15T20:28:53.434Z,58.50
2018-04-15T20:31:21.701Z,57.94
2018-04-15T20:33:49.980Z,59.17
2018-04-15T20:36:18.235Z,58.98
2018-04-15T20:38:47.297Z,58.80
2018-04-15T20:41:15.567Z,59.24
2018-04-15T20:43:43.834Z,59.57
2018-04-15T20:46:13.097Z,59.90
2018-04-15T20:48:41.372Z,59.77
2018-04-15T20:51:09.620Z,60.15
2018-04-15T20:53:38.689Z,60.11
2018-04-15T20:56:06.971Z,59.27
2018-04-15T20:58:35.270Z,59.48
2018-04-15T21:01:03.595Z,59.85
2018-04-15T21:03:32.673Z,60.24
2018-04-15T21:06:00.973Z,60.82
2018-04-15T21:08:29.239Z,61.60
2018-04-15T21:10:57.486Z,61.17
2018-04-15T21:13:26.512Z,61.59
2018-04-15T21:15:54.811Z,61.85
2018-04-15T21:18:23.096Z,62.40
2018-04-15T21:20:51.408Z,62.59
2018-04-15T21:23:19.707Z,61.54
2018-04-15T21:28:23.346Z,61.35
2018-04-15T21:30:51.597Z,61.77
2018-04-15T21:33:20.835Z,62.15
2018-04-15T21:35:49.148Z,62.04
2018-04-15T21:38:17.440Z,61.81
2018-04-15T21:40:45.772Z,61.11
2018-04-15T21:43:14.929Z,61.46
2018-04-15T21:45:43.336Z,61.36
2018-04-15T21:48:11.817Z,60.47
2018-04-15T21:50:40.082Z,60.55
2018-04-15T21:53:08.429Z,60.46
2018-04-15T21:55:36.740Z,60.45
2018-04-15T21:58:05.015Z,60.45
2018-04-15T22:00:34.039Z,60.32
2018-04-15T22:03:02.348Z,60.66
2018-04-15T22:05:30.630Z,60.59
2018-04-15T22:07:58.941Z,61.46
2018-04-15T22:10:27.198Z,61.31
2018-04-15T22:13:05.166Z,61.73
2018-04-15T22:15:33.471Z,61.92
2018-04-15T22:18:01.742Z,61.77
2018-04-15T22:20:30.054Z,62.21
2018-04-15T22:22:58.312Z,62.55
2018-04-15T22:25:26.605Z,62.88
2018-04-15T22:27:54.898Z,63.05
2018-04-15T22:30:23.156Z,62.81
2018-04-15T22:32:52.199Z,62.00
2018-04-15T22:35:20.471Z,61.55
2018-04-15T22:37:48.731Z,61.58
2018-04-15T22:40:17.905Z,61.87
2018-04-15T22:42:46.236Z,61.92
2018-04-15T22:45:15.291Z,62.05
2018-04-15T22:47:48.962Z,62.22
2018-04-15T22:50:18.296Z,62.22
2018-04-15T22:52:46.569Z,62.96
2018-04-15T22:55:15.644Z,63.02
2018-04-15T22:57:43.903Z,63.24
2018-04-15T23:00:12.947Z,63.54
2018-04-15T23:02:41.254Z,63.49
2018-04-15T23:05:10.294Z,63.46
2018-04-15T23:07:38.588Z,63.44
2018-04-15T23:10:06.893Z,63.75
2018-04-15T23:12:35.137Z,63.88
2018-04-15T23:15:04.167Z,64.08
2018-04-15T23:17:32.478Z,64.12
2018-04-15T23:20:00.738Z,64.42
2018-04-15T23:22:28.988Z,64.53
2018-04-15T23:24:57.262Z,64.79
2018-04-15T23:27:25.499Z,64.84
2018-04-15T23:29:54.523Z,64.75
2018-04-15T23:32:22.817Z,64.69
2018-04-15T23:34:51.067Z,64.93
2018-04-15T23:37:19.328Z,64.90
2018-04-15T23:39:47.610Z,64.77
2018-04-15T23:42:15.864Z,65.01
2018-04-15T23:44:44.131Z,64.89
2018-04-15T23:47:13.189Z,64.79
2018-04-15T23:49:41.516Z,64.66
2018-04-15T23:52:09.772Z,64.73
2018-04-15T23:54:38.060Z,64.86
2018-04-15T23:57:06.312Z,64.72
2018-04-15T23:59:35.346Z,64.75
